Time;durP1;ratioP1;P1;durP2;ratioP2;P2;SDS_P1;SDS_P2;PMS_P1;PMS_P2;Temp;Humidity;BMP_temperature;BMP_pressure;BME280_temperature;BME280_humidity;BME280_pressure;Samples;Min_cycle;Max_cycle;Signal;HPM_P1;HPM_P2
2023/12/12 00:00:00;;;;;;;;;26.25;24.00;;;;;;;;5072993;28;10963;-81
2023/12/12 00:02:29;;;;;;;;;27.50;26.00;;;;;;;;5071717;28;11138;-85
2023/12/12 00:05:00;;;;;;;;;31.75;24.50;;;;;;;;5072492;28;11148;-84
2023/12/12 00:07:27;;;;;;;;;32.00;28.25;;;;;;;;5072271;28;11286;-82
2023/12/12 00:09:54;;;;;;;;;27.75;27.75;;;;;;;;5072364;28;11091;-82
2023/12/12 00:12:21;;;;;;;;;28.75;27.50;;;;;;;;5072549;28;11020;-83
2023/12/12 00:14:49;;;;;;;;;23.50;23.50;;;;;;;;5072332;28;11027;-83
2023/12/12 00:17:17;;;;;;;;;23.00;23.00;;;;;;;;5072022;28;10800;-83
2023/12/12 00:19:45;;;;;;;;;34.00;28.00;;;;;;;;5072810;28;10750;-82
2023/12/12 00:22:12;;;;;;;;;27.25;24.00;;;;;;;;5063587;28;10726;-81
2023/12/12 00:24:39;;;;;;;;;30.00;25.75;;;;;;;;5072239;28;10666;-81
2023/12/12 00:27:06;;;;;;;;;27.25;24.75;;;;;;;;5073944;28;10519;-83
2023/12/12 00:29:35;;;;;;;;;28.25;26.25;;;;;;;;5072120;28;10564;-82
2023/12/12 00:32:02;;;;;;;;;26.75;23.00;;;;;;;;5071433;28;10523;-82
2023/12/12 00:34:31;;;;;;;;;26.50;25.00;;;;;;;;5071035;28;10572;-81
2023/12/12 00:37:03;;;;;;;;;21.25;20.25;;;;;;;;5071678;28;10719;-83
2023/12/12 00:39:31;;;;;;;;;25.75;24.75;;;;;;;;5071413;28;10684;-82
2023/12/12 00:41:58;;;;;;;;;24.50;19.50;;;;;;;;5071809;28;10514;-83
2023/12/12 00:44:25;;;;;;;;;26.00;22.75;;;;;;;;5071460;28;11036;-83
2023/12/12 00:46:52;;;;;;;;;30.75;23.50;;;;;;;;5071485;28;11211;-84
2023/12/12 00:49:20;;;;;;;;;33.50;24.50;;;;;;;;5070667;28;10570;-82
2023/12/12 00:51:48;;;;;;;;;26.50;24.25;;;;;;;;5071547;28;10465;-82
2023/12/12 00:54:15;;;;;;;;;25.25;24.75;;;;;;;;5071505;28;10477;-82
2023/12/12 00:56:44;;;;;;;;;26.25;24.25;;;;;;;;5071847;28;10402;-83
2023/12/12 00:59:11;;;;;;;;;28.50;27.75;;;;;;;;5072654;28;10401;-83
2023/12/12 01:01:38;;;;;;;;;32.25;28.00;;;;;;;;5075127;28;10354;-82
2023/12/12 01:04:07;;;;;;;;;24.75;23.75;;;;;;;;5073113;28;10530;-83
2023/12/12 01:06:38;;;;;;;;;23.00;23.00;;;;;;;;5077700;28;10412;-82
2023/12/12 01:09:06;;;;;;;;;30.25;27.00;;;;;;;;5077325;28;10438;-82
2023/12/12 01:11:34;;;;;;;;;33.00;26.00;;;;;;;;5076880;28;10339;-81
2023/12/12 01:14:01;;;;;;;;;31.50;27.00;;;;;;;;5074225;28;10462;-82
2023/12/12 01:16:31;;;;;;;;;28.25;26.00;;;;;;;;5076982;28;10301;-83
2023/12/12 01:18:59;;;;;;;;;27.50;27.50;;;;;;;;5073816;28;10290;-84
2023/12/12 01:21:26;;;;;;;;;34.25;32.75;;;;;;;;5072756;28;10274;-84
2023/12/12 01:23:54;;;;;;;;;27.25;25.25;;;;;;;;5072710;28;10195;-84
2023/12/12 01:26:24;;;;;;;;;33.00;26.75;;;;;;;;5073615;28;10117;-85
2023/12/12 01:28:52;;;;;;;;;28.25;27.75;;;;;;;;5073942;28;10198;-84
2023/12/12 01:31:20;;;;;;;;;22.75;20.75;;;;;;;;5070115;28;10438;-83
2023/12/12 01:33:49;;;;;;;;;32.00;25.75;;;;;;;;5070369;28;10983;-83
2023/12/12 01:36:16;;;;;;;;;31.75;27.25;;;;;;;;5069927;28;10221;-83
2023/12/12 01:38:45;;;;;;;;;28.25;28.25;;;;;;;;5070324;28;10145;-85
2023/12/12 01:41:12;;;;;;;;;32.25;25.50;;;;;;;;5069326;28;10201;-82
2023/12/12 01:43:41;;;;;;;;;26.50;26.00;;;;;;;;5070727;28;10331;-83
2023/12/12 01:46:12;;;;;;;;;24.25;19.50;;;;;;;;5069037;28;11039;-83
2023/12/12 01:48:39;;;;;;;;;27.50;25.75;;;;;;;;5070207;28;10974;-83
2023/12/12 01:51:07;;;;;;;;;23.50;21.75;;;;;;;;5070154;28;10360;-83
2023/12/12 01:53:37;;;;;;;;;32.75;30.75;;;;;;;;5070377;28;10207;-83
2023/12/12 01:56:05;;;;;;;;;32.25;27.50;;;;;;;;5069423;28;10328;-82
2023/12/12 01:58:34;;;;;;;;;33.00;28.50;;;;;;;;5070318;28;10190;-83
2023/12/12 02:01:03;;;;;;;;;38.50;33.25;;;;;;;;5069442;28;10166;-81
2023/12/12 02:03:31;;;;;;;;;34.75;28.25;;;;;;;;5068085;28;10230;-81
2023/12/12 02:06:02;;;;;;;;;31.50;28.75;;;;;;;;5070062;28;10204;-84
2023/12/12 02:08:30;;;;;;;;;28.25;25.25;;;;;;;;5069584;28;10115;-83
2023/12/12 02:10:57;;;;;;;;;34.75;32.00;;;;;;;;5070693;28;10118;-84
2023/12/12 02:13:24;;;;;;;;;32.25;29.75;;;;;;;;5070887;28;10214;-83
2023/12/12 02:15:52;;;;;;;;;29.50;27.00;;;;;;;;5070776;28;10227;-84
2023/12/12 02:18:20;;;;;;;;;29.25;26.75;;;;;;;;5071292;28;10134;-82
2023/12/12 02:20:48;;;;;;;;;35.75;28.50;;;;;;;;5065520;28;10149;-83
2023/12/12 02:23:16;;;;;;;;;33.50;28.75;;;;;;;;5069790;28;10058;-83
2023/12/12 02:25:44;;;;;;;;;28.00;26.75;;;;;;;;5069201;28;9883;-83
2023/12/12 02:28:11;;;;;;;;;24.25;22.75;;;;;;;;5059325;28;10005;-83
2023/12/12 02:30:39;;;;;;;;;33.25;30.50;;;;;;;;5068809;28;10491;-82
2023/12/12 02:33:06;;;;;;;;;21.00;21.00;;;;;;;;5069463;28;9966;-82
2023/12/12 02:35:33;;;;;;;;;26.00;25.00;;;;;;;;5068750;28;9788;-82
2023/12/12 02:38:01;;;;;;;;;22.50;22.50;;;;;;;;5069844;28;9898;-82
2023/12/12 02:40:32;;;;;;;;;23.75;18.75;;;;;;;;5069571;28;9992;-82
2023/12/12 02:43:02;;;;;;;;;17.25;16.50;;;;;;;;5070104;28;10034;-82
2023/12/12 02:45:38;;;;;;;;;22.25;21.50;;;;;;;;5070159;28;9705;-82
2023/12/12 02:48:06;;;;;;;;;24.25;22.75;;;;;;;;5071180;28;9727;-82
2023/12/12 02:50:33;;;;;;;;;22.25;20.00;;;;;;;;5073266;28;9794;-82
2023/12/12 02:53:00;;;;;;;;;30.25;21.50;;;;;;;;5075058;28;9748;-82
2023/12/12 02:55:29;;;;;;;;;20.50;19.75;;;;;;;;5073955;28;9746;-82
2023/12/12 02:57:56;;;;;;;;;23.00;21.25;;;;;;;;5076368;28;9685;-82
2023/12/12 03:00:24;;;;;;;;;23.75;21.25;;;;;;;;5076186;28;9614;-82
2023/12/12 03:02:51;;;;;;;;;23.00;20.00;;;;;;;;5077128;28;10081;-82
2023/12/12 03:05:18;;;;;;;;;21.00;19.00;;;;;;;;5075382;28;9736;-82
2023/12/12 03:07:47;;;;;;;;;21.25;19.50;;;;;;;;5074976;28;9792;-83
2023/12/12 03:10:14;;;;;;;;;26.00;24.75;;;;;;;;5062071;28;9674;-83
2023/12/12 03:12:48;;;;;;;;;20.75;20.75;;;;;;;;5070910;28;9621;-83
2023/12/12 03:15:15;;;;;;;;;24.25;20.75;;;;;;;;5072199;28;9593;-83
2023/12/12 03:17:42;;;;;;;;;8.75;5.00;;;;;;;;5071960;28;9535;-83
2023/12/12 03:20:10;;;;;;;;;23.75;21.75;;;;;;;;5069115;28;9625;-83
2023/12/12 03:22:37;;;;;;;;;19.75;17.00;;;;;;;;5067552;28;9598;-83
2023/12/12 03:25:13;;;;;;;;;20.67;16.00;;;;;;;;5068433;28;9440;-83
2023/12/12 03:27:41;;;;;;;;;15.00;14.00;;;;;;;;5067569;28;9392;-83
2023/12/12 03:30:10;;;;;;;;;23.00;20.00;;;;;;;;5067729;28;9424;-83
2023/12/12 03:32:37;;;;;;;;;16.33;16.33;;;;;;;;5067572;28;9371;-84
2023/12/12 03:35:05;;;;;;;;;13.67;13.67;;;;;;;;5068707;28;9305;-83
2023/12/12 03:37:32;;;;;;;;;12.67;12.67;;;;;;;;5068113;28;9442;-84
2023/12/12 03:40:02;;;;;;;;;17.33;16.67;;;;;;;;5068921;28;10005;-83
2023/12/12 03:42:30;;;;;;;;;18.67;17.33;;;;;;;;5056212;28;9328;-83
2023/12/12 03:45:02;;;;;;;;;17.67;17.00;;;;;;;;5068617;28;9442;-83
2023/12/12 03:47:31;;;;;;;;;15.00;13.67;;;;;;;;5068160;28;9269;-83
2023/12/12 03:50:01;;;;;;;;;22.67;19.33;;;;;;;;5068047;28;9247;-83
2023/12/12 03:52:28;;;;;;;;;16.33;15.00;;;;;;;;5068618;28;10221;-82
2023/12/12 03:54:56;;;;;;;;;18.67;16.33;;;;;;;;5068443;28;9334;-82
2023/12/12 03:57:23;;;;;;;;;16.33;16.33;;;;;;;;5068164;28;9380;-83
2023/12/12 03:59:53;;;;;;;;;17.33;14.33;;;;;;;;5067943;28;9246;-82
2023/12/12 04:02:22;;;;;;;;;14.33;10.33;;;;;;;;5063775;28;9289;-83
2023/12/12 04:04:52;;;;;;;;;15.67;15.33;;;;;;;;5068276;28;9172;-83
2023/12/12 04:07:22;;;;;;;;;18.67;17.33;;;;;;;;5068026;28;9343;-83
2023/12/12 04:09:49;;;;;;;;;14.33;13.33;;;;;;;;5068386;28;9430;-83
2023/12/12 04:12:16;;;;;;;;;19.67;17.67;;;;;;;;5069069;28;9342;-84
2023/12/12 04:14:43;;;;;;;;;14.00;14.00;;;;;;;;5067921;28;9262;-83
2023/12/12 04:17:11;;;;;;;;;19.67;17.33;;;;;;;;5068081;28;9265;-82
2023/12/12 04:19:39;;;;;;;;;21.33;18.67;;;;;;;;5067755;28;9271;-83
2023/12/12 04:22:06;;;;;;;;;11.67;11.67;;;;;;;;5067917;28;9274;-82
2023/12/12 04:24:36;;;;;;;;;16.33;14.67;;;;;;;;5067653;28;9167;-83
2023/12/12 04:27:04;;;;;;;;;19.67;19.67;;;;;;;;5067941;28;10010;-82
2023/12/12 04:29:34;;;;;;;;;20.33;17.00;;;;;;;;5068248;28;9229;-83
2023/12/12 04:32:04;;;;;;;;;16.00;14.33;;;;;;;;5066803;28;9261;-83
2023/12/12 04:34:32;;;;;;;;;18.33;15.33;;;;;;;;5068977;28;9084;-83
2023/12/12 04:37:02;;;;;;;;;19.67;17.00;;;;;;;;5068556;28;9244;-84
2023/12/12 04:39:33;;;;;;;;;14.67;13.00;;;;;;;;5069088;28;9255;-83
2023/12/12 04:42:00;;;;;;;;;15.00;14.67;;;;;;;;5071277;28;9201;-83
2023/12/12 04:44:27;;;;;;;;;21.33;20.00;;;;;;;;5074145;28;9204;-83
2023/12/12 04:47:04;;;;;;;;;18.33;17.00;;;;;;;;5077775;28;9477;-82
2023/12/12 04:49:31;;;;;;;;;18.67;18.00;;;;;;;;5068911;28;9258;-82
2023/12/12 04:52:01;;;;;;;;;24.00;23.00;;;;;;;;5076661;28;9301;-81
2023/12/12 04:54:28;;;;;;;;;16.67;15.67;;;;;;;;5076997;28;9469;-82
2023/12/12 04:56:56;;;;;;;;;21.33;17.33;;;;;;;;5076297;28;9288;-83
2023/12/12 04:59:24;;;;;;;;;22.00;20.33;;;;;;;;5074020;28;9502;-82
2023/12/12 05:01:51;;;;;;;;;18.67;16.67;;;;;;;;5071197;28;9291;-82
2023/12/12 05:04:18;;;;;;;;;20.33;18.33;;;;;;;;5073319;28;9365;-81
2023/12/12 05:06:49;;;;;;;;;23.00;19.00;;;;;;;;5080890;28;9336;-84
2023/12/12 05:09:18;;;;;;;;;17.67;17.33;;;;;;;;5072885;28;9248;-84
2023/12/12 05:11:45;;;;;;;;;18.33;16.67;;;;;;;;5069939;28;9176;-84
2023/12/12 05:14:14;;;;;;;;;20.67;18.00;;;;;;;;5070243;28;9167;-83
2023/12/12 05:16:41;;;;;;;;;16.00;16.00;;;;;;;;5070749;28;9180;-83
2023/12/12 05:19:08;;;;;;;;;16.00;16.00;;;;;;;;5063762;28;9245;-82
2023/12/12 05:21:35;;;;;;;;;21.00;19.33;;;;;;;;5069796;28;9414;-81
2023/12/12 05:24:03;;;;;;;;;18.00;16.00;;;;;;;;5069389;28;9240;-83
2023/12/12 05:26:34;;;;;;;;;19.00;15.67;;;;;;;;5071645;28;9271;-82
2023/12/12 05:29:01;;;;;;;;;19.33;19.33;;;;;;;;5071042;28;9254;-83
2023/12/12 05:31:34;;;;;;;;;16.67;16.67;;;;;;;;5069958;28;9180;-86
2023/12/12 05:34:03;;;;;;;;;18.67;16.67;;;;;;;;5070480;28;9231;-83
2023/12/12 05:36:30;;;;;;;;;34.50;31.50;;;;;;;;5070607;28;9403;-84
2023/12/12 05:38:58;;;;;;;;;17.33;17.33;;;;;;;;5070385;28;9572;-85
2023/12/12 05:41:25;;;;;;;;;18.33;18.33;;;;;;;;5071265;28;10250;-85
2023/12/12 05:43:54;;;;;;;;;16.00;16.00;;;;;;;;5070253;28;10093;-85
2023/12/12 05:46:22;;;;;;;;;17.33;13.33;;;;;;;;5069609;28;9182;-84
2023/12/12 05:48:49;;;;;;;;;18.67;16.00;;;;;;;;5069296;28;9318;-83
2023/12/12 05:51:17;;;;;;;;;17.67;17.67;;;;;;;;5069063;28;9166;-84
2023/12/12 05:53:44;;;;;;;;;19.00;17.33;;;;;;;;5069325;28;9315;-83
2023/12/12 05:56:13;;;;;;;;;21.33;19.00;;;;;;;;5069654;28;9232;-83
2023/12/12 05:58:41;;;;;;;;;15.67;12.67;;;;;;;;5071182;28;8998;-85
2023/12/12 06:01:09;;;;;;;;;14.00;14.00;;;;;;;;5072563;28;9106;-85
2023/12/12 06:03:40;;;;;;;;;13.00;13.00;;;;;;;;5069389;28;9185;-84
2023/12/12 06:06:10;;;;;;;;;19.00;19.00;;;;;;;;5069941;28;8949;-84
2023/12/12 06:08:37;;;;;;;;;22.67;17.67;;;;;;;;5070075;28;9091;-86
2023/12/12 06:11:06;;;;;;;;;16.00;15.33;;;;;;;;5069490;28;9306;-79
2023/12/12 06:13:33;;;;;;;;;15.33;14.67;;;;;;;;5070374;28;8938;-83
2023/12/12 06:16:00;;;;;;;;;15.33;15.33;;;;;;;;5069868;28;9120;-74
2023/12/12 06:18:29;;;;;;;;;16.33;15.00;;;;;;;;5069799;28;9038;-74
2023/12/12 06:20:56;;;;;;;;;15.00;15.00;;;;;;;;5066025;28;9116;-78
2023/12/12 06:23:23;;;;;;;;;18.33;17.67;;;;;;;;5069216;28;9020;-78
2023/12/12 06:25:51;;;;;;;;;20.50;16.25;;;;;;;;5069387;28;9632;-82
2023/12/12 06:28:18;;;;;;;;;17.67;17.67;;;;;;;;5069890;28;8859;-82
2023/12/12 06:30:45;;;;;;;;;21.33;19.00;;;;;;;;5070463;28;8888;-81
2023/12/12 06:33:13;;;;;;;;;19.33;17.33;;;;;;;;5071967;28;9024;-81
2023/12/12 06:35:41;;;;;;;;;14.67;14.33;;;;;;;;5073581;28;9072;-82
2023/12/12 06:38:08;;;;;;;;;25.67;21.67;;;;;;;;5074750;28;9110;-81
2023/12/12 06:40:36;;;;;;;;;22.67;22.33;;;;;;;;5074395;28;9230;-80
2023/12/12 06:43:03;;;;;;;;;16.00;16.00;;;;;;;;5073582;28;9225;-79
2023/12/12 06:45:31;;;;;;;;;13.33;11.33;;;;;;;;5073419;28;9013;-80
2023/12/12 06:47:58;;;;;;;;;17.00;14.33;;;;;;;;5071829;28;9064;-83
2023/12/12 06:50:25;;;;;;;;;15.67;14.00;;;;;;;;5069799;28;8962;-78
2023/12/12 06:52:54;;;;;;;;;18.33;17.00;;;;;;;;5070674;28;8962;-81
2023/12/12 06:55:21;;;;;;;;;17.33;17.33;;;;;;;;5071098;28;9736;-77
2023/12/12 06:57:48;;;;;;;;;20.67;19.33;;;;;;;;5073102;28;9091;-83
2023/12/12 07:00:16;;;;;;;;;21.67;21.67;;;;;;;;5067612;28;9921;-79
2023/12/12 07:02:43;;;;;;;;;26.00;20.67;;;;;;;;5068494;28;9458;-77
2023/12/12 07:05:11;;;;;;;;;22.33;20.33;;;;;;;;5067596;28;9010;-80
2023/12/12 07:07:38;;;;;;;;;21.00;21.00;;;;;;;;5055600;28;9178;-78
2023/12/12 07:10:07;;;;;;;;;22.67;20.33;;;;;;;;5066650;28;9280;-80
2023/12/12 07:12:35;;;;;;;;;23.33;23.33;;;;;;;;5068046;28;9164;-80
2023/12/12 07:15:02;;;;;;;;;18.33;17.33;;;;;;;;5068187;28;9369;-78
2023/12/12 07:17:32;;;;;;;;;17.00;17.00;;;;;;;;5068421;28;9189;-84
2023/12/12 07:20:17;;;;;;;;;18.67;18.67;;;;;;;;5056675;28;9096;-81
2023/12/12 07:22:44;;;;;;;;;21.33;21.33;;;;;;;;5067905;28;8974;-76
2023/12/12 07:25:13;;;;;;;;;21.00;20.33;;;;;;;;5067826;28;9218;-83
2023/12/12 07:27:40;;;;;;;;;19.67;18.33;;;;;;;;5068619;28;9018;-76
2023/12/12 07:30:13;;;;;;;;;19.67;19.67;;;;;;;;5067805;28;8946;-76
2023/12/12 07:32:41;;;;;;;;;14.75;14.75;;;;;;;;5068330;28;8920;-82
2023/12/12 07:35:14;;;;;;;;;16.67;15.67;;;;;;;;5067986;28;8870;-77
2023/12/12 07:37:45;;;;;;;;;18.67;18.67;;;;;;;;5067801;28;9085;-76
2023/12/12 07:40:16;;;;;;;;;20.00;18.33;;;;;;;;5068802;28;9087;-74
2023/12/12 07:42:44;;;;;;;;;20.33;17.00;;;;;;;;5070606;28;8934;-80
2023/12/12 07:45:13;;;;;;;;;17.33;15.67;;;;;;;;5067806;28;9194;-79
2023/12/12 07:47:43;;;;;;;;;16.67;16.67;;;;;;;;5068220;28;9045;-80
2023/12/12 07:50:13;;;;;;;;;12.67;12.67;;;;;;;;5067944;28;9073;-77
2023/12/12 07:52:54;;;;;;;;;;;;;;;;;;;;;
2023/12/12 07:55:31;;;;;;;;;14.67;11.00;;;;;;;;5063057;28;9095;-75
2023/12/12 07:57:59;;;;;;;;;17.00;17.00;;;;;;;;5067687;28;9037;-74
2023/12/12 08:00:41;;;;;;;;;24.33;19.33;;;;;;;;5069791;28;8947;-78
2023/12/12 08:03:08;;;;;;;;;18.67;16.67;;;;;;;;5067138;28;9022;-74
2023/12/12 08:05:37;;;;;;;;;17.67;16.00;;;;;;;;5066685;28;8920;-76
2023/12/12 08:08:06;;;;;;;;;9.67;9.67;;;;;;;;5067643;28;9073;-75
2023/12/12 08:10:36;;;;;;;;;15.00;13.00;;;;;;;;5068176;28;9149;-79
2023/12/12 08:13:08;;;;;;;;;13.33;12.67;;;;;;;;5067918;28;9138;-75
2023/12/12 08:15:36;;;;;;;;;20.00;16.00;;;;;;;;5061486;28;9071;-72
2023/12/12 08:18:05;;;;;;;;;15.33;15.33;;;;;;;;5070451;28;9102;-76
2023/12/12 08:20:32;;;;;;;;;11.33;11.33;;;;;;;;5074765;28;9037;-77
2023/12/12 08:22:59;;;;;;;;;12.67;12.33;;;;;;;;5075557;28;9009;-78
2023/12/12 08:25:28;;;;;;;;;16.50;15.00;;;;;;;;5075403;28;9027;-75
2023/12/12 08:27:57;;;;;;;;;13.67;13.67;;;;;;;;5074962;28;8851;-79
2023/12/12 08:30:24;;;;;;;;;12.00;12.00;;;;;;;;5072223;28;8835;-74
2023/12/12 08:32:51;;;;;;;;;14.33;13.67;;;;;;;;5055192;28;8938;-77
2023/12/12 08:35:19;;;;;;;;;14.75;14.75;;;;;;;;5051442;28;8928;-77
2023/12/12 08:37:47;;;;;;;;;9.00;8.00;;;;;;;;5051194;28;8855;-75
2023/12/12 08:40:14;;;;;;;;;14.00;14.00;;;;;;;;5051018;28;8958;-78
2023/12/12 08:42:41;;;;;;;;;12.25;10.25;;;;;;;;5052180;28;9065;-76
2023/12/12 08:45:11;;;;;;;;;16.00;13.33;;;;;;;;5051297;28;8954;-74
2023/12/12 08:47:38;;;;;;;;;22.33;17.33;;;;;;;;5050286;28;8918;-73
2023/12/12 08:50:06;;;;;;;;;14.75;14.25;;;;;;;;5049478;28;9148;-73
2023/12/12 08:52:33;;;;;;;;;19.00;16.00;;;;;;;;5050769;28;8845;-71
2023/12/12 08:55:03;;;;;;;;;19.00;17.50;;;;;;;;5050102;28;8944;-75
2023/12/12 08:57:30;;;;;;;;;19.00;17.00;;;;;;;;5050536;28;8843;-72
2023/12/12 08:59:57;;;;;;;;;19.67;17.67;;;;;;;;5050026;28;9035;-74
2023/12/12 09:02:26;;;;;;;;;14.67;14.67;;;;;;;;5049590;28;9011;-79
2023/12/12 09:04:53;;;;;;;;;12.25;12.25;;;;;;;;5049993;28;9845;-77
2023/12/12 09:07:20;;;;;;;;;12.50;10.75;;;;;;;;5050138;28;8859;-79
2023/12/12 09:09:47;;;;;;;;;14.00;13.00;;;;;;;;5049959;28;8855;-78
2023/12/12 09:12:14;;;;;;;;;12.33;10.00;;;;;;;;5050292;28;8938;-74
2023/12/12 09:14:42;;;;;;;;;17.00;15.33;;;;;;;;5049808;28;9781;-74
2023/12/12 09:17:09;;;;;;;;;16.25;15.75;;;;;;;;5049957;28;8997;-72
2023/12/12 09:19:37;;;;;;;;;4.00;4.00;;;;;;;;5050483;28;8859;-81
2023/12/12 09:22:05;;;;;;;;;12.00;10.67;;;;;;;;5050863;28;8930;-80
2023/12/12 09:24:33;;;;;;;;;11.75;11.75;;;;;;;;5051446;28;8959;-77
2023/12/12 09:27:03;;;;;;;;;11.50;9.50;;;;;;;;5051605;28;8850;-73
2023/12/12 09:29:30;;;;;;;;;10.25;10.25;;;;;;;;5050290;28;8835;-80
2023/12/12 09:32:01;;;;;;;;;9.75;8.75;;;;;;;;5051902;28;8787;-76
2023/12/12 09:34:28;;;;;;;;;12.50;10.25;;;;;;;;5050325;28;9009;-80
2023/12/12 09:36:57;;;;;;;;;7.50;7.50;;;;;;;;5050341;28;8859;-74
2023/12/12 09:39:24;;;;;;;;;12.00;10.00;;;;;;;;5037515;28;8966;-80
2023/12/12 09:41:52;;;;;;;;;7.75;7.50;;;;;;;;5049339;28;8878;-72
2023/12/12 09:44:20;;;;;;;;;10.00;9.00;;;;;;;;5037692;28;8859;-82
2023/12/12 09:46:48;;;;;;;;;7.50;7.50;;;;;;;;5049628;28;8866;-81
2023/12/12 09:49:15;;;;;;;;;6.75;6.75;;;;;;;;5049479;28;8977;-79
2023/12/12 09:51:43;;;;;;;;;8.75;7.25;;;;;;;;5049570;28;8953;-82
2023/12/12 09:54:12;;;;;;;;;8.75;4.50;;;;;;;;5049715;28;8847;-78
2023/12/12 09:56:40;;;;;;;;;7.00;7.00;;;;;;;;5049630;28;8890;-73
2023/12/12 09:59:07;;;;;;;;;3.75;3.75;;;;;;;;5049808;28;8847;-78
2023/12/12 10:01:35;;;;;;;;;6.75;6.75;;;;;;;;5051662;28;8901;-80
2023/12/12 10:04:03;;;;;;;;;4.50;4.50;;;;;;;;5053132;28;8835;-81
2023/12/12 10:06:30;;;;;;;;;5.00;5.00;;;;;;;;5051895;28;8854;-83
2023/12/12 10:09:00;;;;;;;;;5.00;4.00;;;;;;;;5053586;28;8948;-83
2023/12/12 10:11:29;;;;;;;;;4.00;4.00;;;;;;;;5055204;28;8912;-79
2023/12/12 10:13:58;;;;;;;;;4.50;3.25;;;;;;;;5057038;28;8870;-80
2023/12/12 10:16:26;;;;;;;;;4.00;4.00;;;;;;;;5054820;28;8961;-76
2023/12/12 10:18:54;;;;;;;;;3.00;3.00;;;;;;;;5046051;28;8885;-75
2023/12/12 10:21:22;;;;;;;;;3.25;3.25;;;;;;;;5056594;28;8855;-76
2023/12/12 10:23:51;;;;;;;;;1.25;1.25;;;;;;;;5062957;28;8878;-72
2023/12/12 10:26:24;;;;;;;;;0.25;0.25;;;;;;;;5050814;28;8869;-79
2023/12/12 10:28:54;;;;;;;;;1.50;1.50;;;;;;;;5050477;28;8909;-79
2023/12/12 10:31:22;;;;;;;;;1.75;1.75;;;;;;;;5050036;28;8835;-72
2023/12/12 10:33:50;;;;;;;;;1.75;1.00;;;;;;;;5045742;28;8875;-77
2023/12/12 10:36:17;;;;;;;;;1.00;1.00;;;;;;;;5048164;28;8940;-75
2023/12/12 10:38:45;;;;;;;;;0.00;0.00;;;;;;;;5048217;28;8847;-80
2023/12/12 10:41:14;;;;;;;;;0.75;0.75;;;;;;;;5048237;28;8835;-76
2023/12/12 10:43:42;;;;;;;;;2.00;0.75;;;;;;;;5047946;28;8808;-72
2023/12/12 10:46:12;;;;;;;;;0.75;0.75;;;;;;;;5048287;28;8851;-72
2023/12/12 10:48:46;;;;;;;;;1.00;1.00;;;;;;;;5047980;28;9246;-75
2023/12/12 10:51:13;;;;;;;;;0.00;0.00;;;;;;;;5047782;28;8870;-73
2023/12/12 10:53:44;;;;;;;;;0.50;0.50;;;;;;;;5049365;28;9800;-74
2023/12/12 10:56:12;;;;;;;;;0.50;0.00;;;;;;;;5051915;28;8973;-77
2023/12/12 10:58:42;;;;;;;;;0.00;0.00;;;;;;;;5049481;28;9135;-73
2023/12/12 11:01:12;;;;;;;;;0.00;0.00;;;;;;;;5047148;28;8776;-77
2023/12/12 11:03:40;;;;;;;;;1.00;1.00;;;;;;;;5048163;28;8844;-74
2023/12/12 11:06:09;;;;;;;;;0.00;0.00;;;;;;;;5048278;28;8855;-73
2023/12/12 11:08:38;;;;;;;;;0.75;0.75;;;;;;;;5037282;28;8851;-78
2023/12/12 11:11:11;;;;;;;;;0.50;0.00;;;;;;;;5048242;28;8851;-78
2023/12/12 11:13:40;;;;;;;;;0.00;0.00;;;;;;;;5048533;28;8869;-76
2023/12/12 11:16:10;;;;;;;;;0.25;0.25;;;;;;;;5048051;28;8851;-76
2023/12/12 11:18:39;;;;;;;;;0.00;0.00;;;;;;;;5050365;28;8859;-77
2023/12/12 11:21:07;;;;;;;;;1.00;1.00;;;;;;;;5047018;28;8851;-76
2023/12/12 11:23:55;;;;;;;;;0.00;0.00;;;;;;;;5049625;28;8924;-75
2023/12/12 11:26:25;;;;;;;;;0.00;0.00;;;;;;;;5048471;28;8866;-83
2023/12/12 11:28:54;;;;;;;;;0.00;0.00;;;;;;;;5048272;28;8843;-82
2023/12/12 11:31:26;;;;;;;;;0.00;0.00;;;;;;;;5047628;28;8803;-77
2023/12/12 11:34:07;;;;;;;;;0.00;0.00;;;;;;;;5047721;28;8859;-75
2023/12/12 11:36:50;;;;;;;;;2.00;0.75;;;;;;;;5048131;28;8928;-75
2023/12/12 11:39:30;;;;;;;;;2.00;0.00;;;;;;;;5046513;28;8839;-74
2023/12/12 11:41:58;;;;;;;;;0.00;0.00;;;;;;;;5047596;28;8863;-79
2023/12/12 11:44:25;;;;;;;;;0.25;0.25;;;;;;;;5048171;28;8870;-81
2023/12/12 11:46:54;;;;;;;;;0.00;0.00;;;;;;;;5047792;28;8827;-81
2023/12/12 11:49:22;;;;;;;;;1.00;0.25;;;;;;;;5048478;28;8862;-81
2023/12/12 11:51:51;;;;;;;;;0.00;0.00;;;;;;;;5048921;28;8862;-78
2023/12/12 11:54:23;;;;;;;;;0.25;0.25;;;;;;;;5053218;28;8916;-79
2023/12/12 11:56:56;;;;;;;;;0.00;0.00;;;;;;;;5056606;28;8851;-83
2023/12/12 11:59:23;;;;;;;;;0.00;0.00;;;;;;;;5055783;28;9021;-81
2023/12/12 12:01:51;;;;;;;;;0.00;0.00;;;;;;;;5055960;28;8820;-77
2023/12/12 12:04:21;;;;;;;;;0.00;0.00;;;;;;;;5055772;28;8865;-79
2023/12/12 12:06:49;;;;;;;;;1.50;0.00;;;;;;;;5055264;28;8962;-76
2023/12/12 12:09:16;;;;;;;;;2.75;0.75;;;;;;;;5054570;28;8862;-78
2023/12/12 12:11:46;;;;;;;;;0.00;0.00;;;;;;;;5053853;28;8859;-73
2023/12/12 12:14:13;;;;;;;;;1.00;1.00;;;;;;;;5046258;28;8853;-77
2023/12/12 12:16:41;;;;;;;;;1.50;0.00;;;;;;;;5053481;28;8864;-76
2023/12/12 12:19:32;;;;;;;;;0.00;0.00;;;;;;;;5048111;28;8875;-75
2023/12/12 12:22:06;;;;;;;;;1.50;0.00;;;;;;;;5048814;28;9598;-79
2023/12/12 12:24:33;;;;;;;;;0.00;0.00;;;;;;;;5045972;28;8851;-76
2023/12/12 12:27:01;;;;;;;;;2.75;0.25;;;;;;;;5050405;28;8851;-75
2023/12/12 12:29:28;;;;;;;;;0.75;0.75;;;;;;;;5050790;28;8851;-77
2023/12/12 12:31:55;;;;;;;;;0.00;0.00;;;;;;;;5049749;28;8823;-79
2023/12/12 12:34:23;;;;;;;;;1.00;0.25;;;;;;;;5049901;28;8875;-75
2023/12/12 12:36:54;;;;;;;;;0.00;0.00;;;;;;;;5051456;28;8861;-82
2023/12/12 12:39:22;;;;;;;;;0.50;0.50;;;;;;;;5050804;28;8851;-81
2023/12/12 12:41:54;;;;;;;;;2.00;0.50;;;;;;;;5050898;28;8890;-75
2023/12/12 12:44:24;;;;;;;;;0.00;0.00;;;;;;;;5050802;28;8857;-74
2023/12/12 12:46:52;;;;;;;;;0.00;0.00;;;;;;;;5050424;28;8858;-75
2023/12/12 12:49:20;;;;;;;;;0.00;0.00;;;;;;;;5051098;28;8993;-77
2023/12/12 12:51:47;;;;;;;;;2.75;0.25;;;;;;;;5056109;28;8862;-76
2023/12/12 12:54:16;;;;;;;;;0.00;0.00;;;;;;;;5063574;28;8851;-81
2023/12/12 12:56:44;;;;;;;;;2.00;0.00;;;;;;;;5051366;28;8863;-75
2023/12/12 12:59:16;;;;;;;;;1.00;1.00;;;;;;;;5050781;28;8867;-74
2023/12/12 13:01:43;;;;;;;;;0.25;0.25;;;;;;;;5050739;28;8818;-79
2023/12/12 13:04:11;;;;;;;;;1.50;1.00;;;;;;;;5051690;28;8855;-77
2023/12/12 13:06:39;;;;;;;;;1.00;1.00;;;;;;;;5052268;28;8839;-81
2023/12/12 13:09:09;;;;;;;;;0.00;0.00;;;;;;;;5052764;28;8862;-76
2023/12/12 13:11:39;;;;;;;;;0.00;0.00;;;;;;;;5051672;28;8866;-80
2023/12/12 13:14:06;;;;;;;;;0.25;0.25;;;;;;;;5050837;28;8870;-74
2023/12/12 13:16:34;;;;;;;;;0.75;0.75;;;;;;;;5049861;28;8985;-82
2023/12/12 13:19:04;;;;;;;;;0.00;0.00;;;;;;;;5050183;28;8855;-75
2023/12/12 13:21:31;;;;;;;;;1.00;1.00;;;;;;;;5042783;28;9305;-80
2023/12/12 13:23:58;;;;;;;;;0.00;0.00;;;;;;;;5050566;28;8877;-81
2023/12/12 13:26:28;;;;;;;;;0.00;0.00;;;;;;;;5050450;28;8947;-79
2023/12/12 13:28:56;;;;;;;;;1.00;1.00;;;;;;;;5037188;28;8873;-83
2023/12/12 13:31:25;;;;;;;;;0.00;0.00;;;;;;;;5049563;28;9620;-78
2023/12/12 13:33:52;;;;;;;;;0.25;0.00;;;;;;;;5049691;28;8854;-73
2023/12/12 13:36:20;;;;;;;;;1.00;1.00;;;;;;;;5050627;28;8851;-78
2023/12/12 13:38:47;;;;;;;;;0.00;0.00;;;;;;;;5050091;28;8847;-82
2023/12/12 13:41:15;;;;;;;;;2.00;0.50;;;;;;;;5052461;28;8879;-81
2023/12/12 13:43:43;;;;;;;;;1.50;1.00;;;;;;;;5050596;28;8863;-73
2023/12/12 13:46:13;;;;;;;;;0.50;0.25;;;;;;;;5054085;28;8889;-81
2023/12/12 13:48:40;;;;;;;;;0.75;0.75;;;;;;;;5054653;28;8846;-83
2023/12/12 13:51:08;;;;;;;;;0.25;0.25;;;;;;;;5055133;28;8859;-81
2023/12/12 13:53:36;;;;;;;;;1.00;0.50;;;;;;;;5053773;28;8855;-81
2023/12/12 13:56:03;;;;;;;;;1.25;0.00;;;;;;;;5053995;28;8870;-78
2023/12/12 13:58:30;;;;;;;;;0.75;0.75;;;;;;;;5053103;28;8839;-76
2023/12/12 14:00:57;;;;;;;;;0.75;0.75;;;;;;;;5050030;28;9550;-78
2023/12/12 14:03:27;;;;;;;;;2.00;0.00;;;;;;;;5050416;28;8883;-75
2023/12/12 14:05:54;;;;;;;;;0.50;0.50;;;;;;;;5051592;28;8970;-77
2023/12/12 14:08:21;;;;;;;;;0.50;0.00;;;;;;;;5050956;28;8819;-74
2023/12/12 14:10:49;;;;;;;;;1.00;1.00;;;;;;;;5049961;28;8866;-79
2023/12/12 14:13:16;;;;;;;;;2.00;1.00;;;;;;;;5045910;28;8964;-78
2023/12/12 14:15:43;;;;;;;;;1.75;1.75;;;;;;;;5048623;28;8863;-80
2023/12/12 14:18:15;;;;;;;;;2.00;0.25;;;;;;;;5048351;28;8851;-72
2023/12/12 14:20:47;;;;;;;;;1.00;1.00;;;;;;;;5049188;28;8905;-73
2023/12/12 14:23:14;;;;;;;;;1.50;1.00;;;;;;;;5048458;28;9669;-81
2023/12/12 14:25:42;;;;;;;;;2.00;0.25;;;;;;;;5049471;28;8851;-76
2023/12/12 14:28:09;;;;;;;;;0.75;0.75;;;;;;;;5049207;28;8873;-81
2023/12/12 14:30:37;;;;;;;;;3.25;2.00;;;;;;;;5051233;28;8795;-80
2023/12/12 14:33:04;;;;;;;;;1.00;1.00;;;;;;;;5051562;28;8882;-85
2023/12/12 14:35:32;;;;;;;;;0.25;0.25;;;;;;;;5049742;28;8855;-75
2023/12/12 14:38:01;;;;;;;;;1.00;1.00;;;;;;;;5049212;28;9710;-76
2023/12/12 14:40:28;;;;;;;;;0.75;0.75;;;;;;;;5048547;28;9615;-74
2023/12/12 14:42:56;;;;;;;;;1.00;1.00;;;;;;;;5048431;28;9660;-74
2023/12/12 14:45:24;;;;;;;;;3.50;1.00;;;;;;;;5048224;28;8898;-73